Time;durP1;ratioP1;P1;durP2;ratioP2;P2;SDS_P1;SDS_P2;PMS_P1;PMS_P2;Temp;Humidity;BMP_temperature;BMP_pressure;BME280_temperature;BME280_humidity;BME280_pressure;Samples;Min_cycle;Max_cycle;Signal;HPM_P1;HPM_P2
2022/11/20 00:00:54;;;;;;;0.80;0.80;;;-2.20;99.90;;;;;;4966364;28;20041;-81
2022/11/20 00:03:20;;;;;;;0.80;0.80;;;-2.00;99.90;;;;;;4977098;28;20381;-81
2022/11/20 00:05:46;;;;;;;0.80;0.80;;;-2.10;99.90;;;;;;4960886;28;20068;-81
2022/11/20 00:08:12;;;;;;;0.90;0.90;;;-1.90;99.90;;;;;;4952509;28;20799;-80
2022/11/20 00:10:39;;;;;;;1.48;1.42;;;-2.10;99.90;;;;;;4993736;28;20669;-81
2022/11/20 00:13:06;;;;;;;0.80;0.80;;;-2.10;99.90;;;;;;4952121;28;20054;-81
2022/11/20 00:15:31;;;;;;;0.80;0.80;;;-2.00;99.90;;;;;;4977156;28;20767;-81
2022/11/20 00:17:57;;;;;;;0.88;0.88;;;-2.00;99.90;;;;;;4996373;28;20041;-81
2022/11/20 00:20:23;;;;;;;0.80;0.80;;;-2.00;99.90;;;;;;4978436;28;20052;-81
2022/11/20 00:22:50;;;;;;;0.90;0.90;;;-2.10;99.90;;;;;;4986741;28;20060;-81
2022/11/20 00:25:16;;;;;;;0.90;0.90;;;-2.00;99.90;;;;;;4959980;28;20127;-81
2022/11/20 00:27:42;;;;;;;0.90;0.90;;;-2.00;99.90;;;;;;4958068;28;20048;-81
2022/11/20 00:30:08;;;;;;;0.90;0.90;;;-2.00;99.90;;;;;;4964258;28;20044;-81
2022/11/20 00:32:34;;;;;;;0.80;0.80;;;-1.90;99.90;;;;;;4971596;28;20067;-80
2022/11/20 00:35:00;;;;;;;0.90;0.90;;;-2.00;99.90;;;;;;4992462;28;20045;-81
2022/11/20 00:37:26;;;;;;;0.80;0.80;;;-2.00;99.90;;;;;;4959452;28;20444;-81
2022/11/20 00:39:51;;;;;;;0.90;0.90;;;-1.90;99.90;;;;;;4966025;28;20056;-80
2022/11/20 00:42:18;;;;;;;0.80;0.80;;;-1.80;99.90;;;;;;4990708;28;20070;-81
2022/11/20 00:44:43;;;;;;;0.80;0.80;;;-1.90;99.90;;;;;;4967770;28;20147;-81
2022/11/20 00:47:10;;;;;;;0.80;0.80;;;-1.80;99.90;;;;;;4991907;28;20320;-80
2022/11/20 00:49:36;;;;;;;0.88;0.88;;;-1.80;99.90;;;;;;4987706;28;20582;-80
2022/11/20 00:52:02;;;;;;;0.80;0.80;;;-1.80;99.90;;;;;;4988468;28;20040;-80
2022/11/20 00:54:28;;;;;;;0.80;0.80;;;-1.80;99.90;;;;;;4991689;28;20106;-81
2022/11/20 00:56:54;;;;;;;0.85;0.85;;;-1.80;99.90;;;;;;4985912;28;20567;-80
2022/11/20 00:59:19;;;;;;;0.80;0.80;;;-1.80;99.90;;;;;;4984088;28;20048;-80
2022/11/20 01:01:45;;;;;;;0.90;0.90;;;-1.80;99.90;;;;;;4970152;28;20044;-80
2022/11/20 01:04:11;;;;;;;0.90;0.90;;;-1.70;99.90;;;;;;4977983;28;20044;-81
2022/11/20 01:06:38;;;;;;;0.90;0.90;;;-1.60;99.90;;;;;;4982360;28;20140;-80
2022/11/20 01:09:13;;;;;;;0.90;0.90;;;-1.60;99.90;;;;;;4985767;28;20114;-80
2022/11/20 01:11:44;;;;;;;0.90;0.90;;;-1.60;99.90;;;;;;4993485;28;20649;-81
2022/11/20 01:14:14;;;;;;;0.90;0.90;;;-1.60;99.90;;;;;;4970069;28;20443;-80
2022/11/20 01:16:43;;;;;;;0.80;0.80;;;-1.50;99.90;;;;;;4962038;28;20880;-80
2022/11/20 01:19:14;;;;;;;0.90;0.90;;;-1.40;99.90;;;;;;4967536;28;20079;-81
2022/11/20 01:21:42;;;;;;;0.80;0.80;;;-1.30;99.90;;;;;;4945592;28;20531;-80
2022/11/20 01:24:12;;;;;;;0.90;0.90;;;-1.30;99.90;;;;;;4980024;28;20044;-80
2022/11/20 01:26:41;;;;;;;0.85;0.85;;;-1.40;99.90;;;;;;4980709;28;20454;-81
2022/11/20 01:29:17;;;;;;;0.90;0.90;;;-1.50;99.90;;;;;;4965802;28;20516;-80
2022/11/20 01:31:43;;;;;;;0.80;0.80;;;-1.40;99.90;;;;;;4966623;28;20063;-80
2022/11/20 01:34:19;;;;;;;0.80;0.80;;;-1.40;99.90;;;;;;4962566;28;20431;-80
2022/11/20 01:36:45;;;;;;;0.90;0.90;;;-1.40;99.90;;;;;;4985249;28;20044;-80
2022/11/20 01:39:21;;;;;;;0.90;0.90;;;-1.50;99.90;;;;;;4962573;28;20882;-80
2022/11/20 01:45:00;;;;;;;0.90;0.90;;;-1.50;99.90;;;;;;4981495;28;20048;-80
2022/11/20 01:47:31;;;;;;;0.90;0.90;;;-1.30;99.90;;;;;;4968253;28;20110;-80
2022/11/20 01:50:25;;;;;;;0.90;0.90;;;-1.60;99.90;;;;;;4980713;28;20155;-80
2022/11/20 01:53:03;;;;;;;0.80;0.80;;;-1.60;99.90;;;;;;4974625;28;20060;-80
2022/11/20 01:55:33;;;;;;;0.90;0.90;;;-1.50;99.90;;;;;;4984240;28;20059;-80
2022/11/20 01:58:01;;;;;;;0.80;0.80;;;-1.50;99.90;;;;;;4983698;28;20747;-80
2022/11/20 02:00:27;;;;;;;1.42;1.38;;;-1.60;99.90;;;;;;4964259;28;20119;-80
2022/11/20 02:02:58;;;;;;;0.80;0.80;;;-1.70;99.90;;;;;;4962092;28;20058;-80
2022/11/20 02:05:31;;;;;;;0.80;0.80;;;-1.70;99.90;;;;;;4982479;28;20056;-80
2022/11/20 02:07:58;;;;;;;0.80;0.80;;;-1.60;99.90;;;;;;4988814;28;20498;-80
2022/11/20 02:10:25;;;;;;;0.90;0.90;;;-1.60;99.90;;;;;;4957687;28;20449;-80
2022/11/20 02:15:35;;;;;;;0.80;0.80;;;-1.60;99.90;;;;;;4982178;28;20559;-80
2022/11/20 02:18:02;;;;;;;0.90;0.90;;;-1.50;99.90;;;;;;4978260;28;20563;-80
2022/11/20 02:20:28;;;;;;;0.90;0.90;;;-1.60;99.90;;;;;;4976813;28;20059;-80
2022/11/20 02:23:03;;;;;;;0.90;0.90;;;-1.60;99.90;;;;;;4981641;28;20456;-80
2022/11/20 02:25:32;;;;;;;0.90;0.90;;;-1.60;99.90;;;;;;4980477;28;20045;-79
2022/11/20 02:27:58;;;;;;;0.80;0.80;;;-1.50;99.90;;;;;;4979707;28;20556;-80
2022/11/20 02:30:24;;;;;;;0.90;0.90;;;-1.40;99.90;;;;;;4962797;28;20050;-80
2022/11/20 02:32:50;;;;;;;0.90;0.90;;;-1.40;99.90;;;;;;4980021;28;20048;-80
2022/11/20 02:35:19;;;;;;;0.80;0.80;;;-1.40;99.90;;;;;;4979332;28;20036;-80
2022/11/20 02:37:49;;;;;;;0.90;0.90;;;-1.30;99.90;;;;;;4977824;28;20041;-80
2022/11/20 02:40:15;;;;;;;0.90;0.90;;;-1.30;99.90;;;;;;4959536;28;20048;-80
2022/11/20 02:42:41;;;;;;;0.80;0.80;;;-1.30;99.90;;;;;;4965059;28;20052;-80
2022/11/20 02:45:07;;;;;;;1.13;1.13;;;-1.30;99.90;;;;;;4960610;28;20052;-80
2022/11/20 02:47:33;;;;;;;0.80;0.80;;;-1.30;99.90;;;;;;4978275;28;20048;-80
2022/11/20 02:49:59;;;;;;;0.90;0.90;;;-1.30;99.90;;;;;;4980768;28;20033;-80
2022/11/20 02:52:25;;;;;;;0.80;0.80;;;-1.40;99.90;;;;;;4990932;28;20094;-80
2022/11/20 02:54:51;;;;;;;0.90;0.90;;;-1.50;99.90;;;;;;4984270;28;20151;-80
2022/11/20 02:57:17;;;;;;;0.80;0.80;;;-1.30;99.90;;;;;;4985203;28;20083;-80
2022/11/20 02:59:43;;;;;;;0.80;0.80;;;-1.30;99.90;;;;;;4980592;28;20044;-80
2022/11/20 03:02:09;;;;;;;0.80;0.80;;;-1.50;99.90;;;;;;4981129;28;20048;-80
2022/11/20 03:04:35;;;;;;;0.90;0.90;;;-1.30;99.90;;;;;;4963796;28;20060;-80
2022/11/20 03:07:01;;;;;;;0.80;0.80;;;-1.30;99.90;;;;;;4984995;28;20059;-80
2022/11/20 03:09:26;;;;;;;0.80;0.80;;;-1.50;99.90;;;;;;4962652;28;20076;-80
2022/11/20 03:11:52;;;;;;;0.82;0.82;;;-1.50;99.90;;;;;;4965702;28;20040;-80
2022/11/20 03:14:18;;;;;;;0.80;0.80;;;-1.40;99.90;;;;;;4964194;28;20063;-80
2022/11/20 03:16:44;;;;;;;0.80;0.80;;;-1.30;99.90;;;;;;4984789;28;20072;-79
2022/11/20 03:19:12;;;;;;;0.80;0.80;;;-1.30;99.90;;;;;;4984669;28;20436;-80
2022/11/20 03:21:38;;;;;;;0.80;0.80;;;-1.40;99.90;;;;;;4984689;28;20067;-80
2022/11/20 03:24:05;;;;;;;0.80;0.80;;;-1.40;99.90;;;;;;4981913;28;20070;-80
2022/11/20 03:26:30;;;;;;;0.80;0.80;;;-1.30;99.90;;;;;;4936577;28;20056;-80
2022/11/20 03:28:59;;;;;;;0.90;0.90;;;-1.30;99.90;;;;;;4981294;28;20047;-80
2022/11/20 03:31:27;;;;;;;0.80;0.80;;;-1.30;99.90;;;;;;4946756;28;20579;-80
2022/11/20 03:33:54;;;;;;;0.80;0.80;;;-1.30;99.90;;;;;;4978575;28;20548;-80
2022/11/20 03:36:22;;;;;;;0.90;0.90;;;-1.20;99.90;;;;;;4976867;28;21006;-79
2022/11/20 03:38:48;;;;;;;0.80;0.80;;;-1.30;99.90;;;;;;4962802;28;20052;-79
2022/11/20 03:41:20;;;;;;;0.80;0.80;;;-1.10;99.90;;;;;;4958338;28;20254;-79
2022/11/20 03:43:55;;;;;;;0.90;0.90;;;-1.20;99.90;;;;;;4960542;28;21002;-79
2022/11/20 03:46:21;;;;;;;0.80;0.80;;;-1.10;99.90;;;;;;4979517;28;20259;-79
2022/11/20 03:48:47;;;;;;;0.80;0.80;;;-1.40;99.90;;;;;;4959177;28;20949;-79
2022/11/20 03:51:19;;;;;;;0.80;0.80;;;-1.50;99.90;;;;;;4985728;28;20752;-79
2022/11/20 03:53:47;;;;;;;0.90;0.90;;;-1.40;99.90;;;;;;4980511;28;21197;-79
2022/11/20 03:56:14;;;;;;;0.80;0.80;;;-1.30;99.90;;;;;;4980612;28;20052;-79
2022/11/20 03:58:41;;;;;;;0.80;0.80;;;-1.20;99.90;;;;;;4978683;28;20052;-79
2022/11/20 04:01:08;;;;;;;0.88;0.88;;;-1.20;99.90;;;;;;4974721;28;20044;-79
2022/11/20 04:03:36;;;;;;;0.80;0.80;;;-1.20;99.90;;;;;;4974324;28;20618;-79
2022/11/20 04:06:16;;;;;;;0.80;0.80;;;-1.10;99.90;;;;;;4959274;28;20094;-79
2022/11/20 04:08:42;;;;;;;0.80;0.80;;;-1.10;99.90;;;;;;4963832;28;20978;-79
2022/11/20 04:11:13;;;;;;;0.80;0.80;;;-1.10;99.90;;;;;;4981497;28;20055;-80
2022/11/20 04:13:40;;;;;;;0.80;0.80;;;-1.00;99.90;;;;;;4940300;28;20056;-80
2022/11/20 04:16:07;;;;;;;0.80;0.80;;;-1.10;99.90;;;;;;4968804;28;20056;-80
2022/11/20 04:18:33;;;;;;;0.80;0.80;;;-1.00;99.90;;;;;;4957750;28;20044;-80
2022/11/20 04:20:59;;;;;;;0.80;0.80;;;-1.00;99.90;;;;;;4946595;28;20268;-80
2022/11/20 04:23:26;;;;;;;0.80;0.80;;;-1.00;99.90;;;;;;4967476;28;20040;-80
2022/11/20 04:25:51;;;;;;;0.90;0.90;;;-1.00;99.90;;;;;;4977753;28;20394;-80
2022/11/20 04:28:17;;;;;;;0.85;0.85;;;-1.00;99.90;;;;;;4975959;28;20083;-80
2022/11/20 04:30:43;;;;;;;0.80;0.80;;;-1.00;99.90;;;;;;4980325;28;20470;-79
2022/11/20 04:33:09;;;;;;;0.80;0.80;;;-1.00;99.90;;;;;;4955317;28;20950;-80
2022/11/20 04:35:36;;;;;;;0.80;0.80;;;-0.90;99.90;;;;;;4981469;28;20083;-79
2022/11/20 04:38:02;;;;;;;0.80;0.80;;;-0.90;99.90;;;;;;4975554;28;20044;-80
2022/11/20 04:40:29;;;;;;;0.80;0.80;;;-0.90;99.90;;;;;;4973946;28;20437;-81
2022/11/20 04:42:55;;;;;;;0.80;0.80;;;-1.00;99.90;;;;;;4978035;28;20083;-81
2022/11/20 04:45:22;;;;;;;0.80;0.80;;;-0.90;99.90;;;;;;4985001;28;20214;-80
2022/11/20 04:47:48;;;;;;;0.80;0.80;;;-0.90;99.90;;;;;;4978556;28;20442;-80
2022/11/20 04:50:14;;;;;;;0.80;0.80;;;-0.80;99.90;;;;;;4981424;28;20121;-79
2022/11/20 04:52:39;;;;;;;0.80;0.80;;;-0.90;99.90;;;;;;4978891;28;20056;-80
2022/11/20 04:55:06;;;;;;;0.80;0.80;;;-0.80;99.90;;;;;;4962083;28;20052;-80
2022/11/20 04:57:32;;;;;;;0.80;0.80;;;-0.80;99.90;;;;;;4955253;28;20110;-80
2022/11/20 04:59:58;;;;;;;0.80;0.80;;;-0.70;99.90;;;;;;4977351;28;20501;-80
2022/11/20 05:02:23;;;;;;;0.80;0.80;;;-0.60;99.90;;;;;;4962484;28;20737;-80
2022/11/20 05:04:49;;;;;;;0.80;0.80;;;-0.70;99.90;;;;;;4955882;28;20994;-81
2022/11/20 05:07:15;;;;;;;0.80;0.80;;;-0.70;99.90;;;;;;4976253;28;20726;-80
2022/11/20 05:09:41;;;;;;;0.90;0.90;;;-0.70;99.90;;;;;;4964218;28;20098;-80
2022/11/20 05:12:10;;;;;;;0.80;0.80;;;-0.70;99.90;;;;;;4964378;28;20078;-80
2022/11/20 05:14:36;;;;;;;0.80;0.80;;;-0.80;99.90;;;;;;4971157;28;20048;-80
2022/11/20 05:17:01;;;;;;;0.90;0.90;;;-0.60;99.90;;;;;;4959253;28;20098;-80
2022/11/20 05:19:27;;;;;;;0.85;0.85;;;-0.60;99.90;;;;;;4977392;28;20523;-80
2022/11/20 05:21:53;;;;;;;0.85;0.85;;;-0.60;99.90;;;;;;4974679;28;20421;-80
2022/11/20 05:24:19;;;;;;;0.80;0.80;;;-0.80;99.90;;;;;;4943641;28;20049;-80
2022/11/20 05:26:45;;;;;;;0.80;0.80;;;-0.70;99.90;;;;;;4956491;28;20056;-80
2022/11/20 05:29:12;;;;;;;0.85;0.85;;;-0.60;99.90;;;;;;4940176;28;20131;-80
2022/11/20 05:31:40;;;;;;;0.80;0.80;;;-0.60;99.90;;;;;;4972588;28;20072;-80
2022/11/20 05:34:06;;;;;;;0.70;0.70;;;-0.50;99.90;;;;;;4976586;28;20053;-80
2022/11/20 05:36:32;;;;;;;0.80;0.80;;;-0.50;99.90;;;;;;4961820;28;20056;-80
2022/11/20 05:38:58;;;;;;;0.80;0.80;;;-0.50;99.90;;;;;;4974394;28;20044;-80
2022/11/20 05:41:24;;;;;;;0.85;0.85;;;-0.50;99.90;;;;;;4954722;28;20472;-80
2022/11/20 05:43:51;;;;;;;0.80;0.80;;;-0.50;99.90;;;;;;4976324;28;20394;-80
2022/11/20 05:46:20;;;;;;;0.80;0.80;;;-0.40;99.90;;;;;;4957438;28;20067;-81
2022/11/20 05:48:47;;;;;;;0.80;0.80;;;-0.50;99.90;;;;;;4959735;28;20889;-80
2022/11/20 05:51:16;;;;;;;0.80;0.80;;;-0.50;99.90;;;;;;4980511;28;21057;-80
2022/11/20 05:53:42;;;;;;;0.80;0.80;;;-0.50;99.90;;;;;;4981237;28;20683;-81
2022/11/20 05:56:14;;;;;;;0.90;0.90;;;-0.50;99.90;;;;;;4941603;28;20048;-80
2022/11/20 05:58:40;;;;;;;0.90;0.90;;;-0.40;99.90;;;;;;4955613;28;20415;-80
2022/11/20 06:01:16;;;;;;;0.77;0.77;;;-0.40;99.90;;;;;;4976835;28;20451;-81
2022/11/20 06:03:45;;;;;;;0.80;0.80;;;-0.40;99.90;;;;;;4972696;28;20780;-80
2022/11/20 06:06:11;;;;;;;0.80;0.80;;;-0.40;99.90;;;;;;4955804;28;20057;-80
2022/11/20 06:08:37;;;;;;;0.80;0.80;;;-0.40;99.90;;;;;;4972933;28;20961;-80
2022/11/20 06:11:08;;;;;;;0.80;0.80;;;-0.30;99.90;;;;;;4961318;28;20037;-80
2022/11/20 06:13:34;;;;;;;0.80;0.80;;;-0.30;99.90;;;;;;4955437;28;20762;-80
2022/11/20 06:16:01;;;;;;;0.80;0.80;;;-0.30;99.90;;;;;;4983300;28;20050;-80
2022/11/20 06:18:28;;;;;;;0.80;0.80;;;-0.30;99.90;;;;;;4955563;28;20644;-80
2022/11/20 06:21:21;;;;;;;0.80;0.80;;;-0.30;99.90;;;;;;4979118;28;20040;-79
2022/11/20 06:23:47;;;;;;;0.80;0.80;;;-0.40;99.90;;;;;;4971970;28;20455;-80
2022/11/20 06:26:22;;;;;;;0.70;0.70;;;-0.50;99.90;;;;;;4961461;28;20070;-80
2022/11/20 06:28:49;;;;;;;0.80;0.80;;;-0.50;99.90;;;;;;4957521;28;20082;-80
2022/11/20 06:31:17;;;;;;;0.80;0.80;;;-0.40;99.90;;;;;;4978918;28;20055;-80
2022/11/20 06:33:43;;;;;;;0.80;0.80;;;-0.30;99.90;;;;;;4981148;28;20494;-80
2022/11/20 06:36:11;;;;;;;0.80;0.80;;;-0.20;99.90;;;;;;4981789;28;20052;-80
2022/11/20 06:38:38;;;;;;;0.80;0.80;;;-0.30;99.90;;;;;;4948810;28;20071;-80
2022/11/20 06:41:05;;;;;;;0.80;0.80;;;-0.30;99.90;;;;;;4960919;28;20410;-78
2022/11/20 06:43:31;;;;;;;0.80;0.80;;;-0.20;99.90;;;;;;4978396;28;20055;-80
2022/11/20 06:45:58;;;;;;;0.80;0.80;;;-0.20;99.90;;;;;;4958250;28;20414;-80
2022/11/20 06:48:25;;;;;;;0.90;0.90;;;-0.20;99.90;;;;;;4976442;28;20075;-80
2022/11/20 06:50:51;;;;;;;0.80;0.80;;;-0.20;99.90;;;;;;4977757;28;20040;-79
2022/11/20 06:53:17;;;;;;;0.80;0.80;;;-0.20;99.90;;;;;;4972239;28;20155;-79
2022/11/20 06:55:47;;;;;;;0.80;0.80;;;-0.20;99.90;;;;;;4970671;28;20135;-80
2022/11/20 06:58:14;;;;;;;0.80;0.80;;;-0.10;99.90;;;;;;4976218;28;20763;-80
2022/11/20 07:00:40;;;;;;;0.80;0.80;;;-0.20;99.90;;;;;;4975149;28;20041;-81
2022/11/20 07:03:08;;;;;;;0.80;0.80;;;-0.10;99.90;;;;;;4936376;28;20060;-80
2022/11/20 07:05:34;;;;;;;0.80;0.80;;;-0.10;99.90;;;;;;4972175;28;20876;-81
2022/11/20 07:08:00;;;;;;;0.80;0.80;;;-0.20;99.90;;;;;;4959032;28;20080;-80
2022/11/20 07:10:26;;;;;;;0.80;0.80;;;-0.20;99.90;;;;;;4975476;28;20113;-81
2022/11/20 07:12:53;;;;;;;0.80;0.80;;;-0.30;99.90;;;;;;4956762;28;20051;-80
2022/11/20 07:15:23;;;;;;;0.80;0.80;;;-0.30;99.90;;;;;;4960368;28;20583;-81
2022/11/20 07:17:52;;;;;;;0.80;0.80;;;-0.30;99.90;;;;;;4979200;28;21167;-80
2022/11/20 07:20:18;;;;;;;0.80;0.80;;;-0.40;99.90;;;;;;4980815;28;20686;-80
2022/11/20 07:22:43;;;;;;;0.80;0.80;;;-0.40;99.90;;;;;;4960479;28;20044;-78
2022/11/20 07:25:10;;;;;;;0.80;0.80;;;-0.30;99.90;;;;;;4978640;28;20048;-80
2022/11/20 07:27:36;;;;;;;0.80;0.80;;;-0.20;99.90;;;;;;4974372;28;20185;-80
2022/11/20 07:30:03;;;;;;;0.80;0.80;;;-0.10;99.90;;;;;;4979658;28;20051;-81
2022/11/20 07:32:29;;;;;;;0.80;0.80;;;-0.30;99.90;;;;;;4971146;28;20052;-79
2022/11/20 07:34:55;;;;;;;0.80;0.80;;;-0.20;99.90;;;;;;4973474;28;20056;-81
2022/11/20 07:37:21;;;;;;;0.80;0.80;;;-0.30;99.90;;;;;;4967852;28;20132;-83
2022/11/20 07:39:47;;;;;;;0.80;0.80;;;-0.30;99.90;;;;;;4971740;28;20552;-80
2022/11/20 07:42:13;;;;;;;0.80;0.80;;;-0.30;99.90;;;;;;4987778;28;20386;-78
2022/11/20 07:44:39;;;;;;;0.90;0.90;;;-0.30;99.90;;;;;;4981104;28;20492;-79
2022/11/20 07:47:05;;;;;;;0.80;0.80;;;-0.20;99.90;;;;;;4961832;28;20243;-80
2022/11/20 07:49:31;;;;;;;0.80;0.80;;;-0.10;99.90;;;;;;4961782;28;20119;-80
2022/11/20 07:51:57;;;;;;;0.80;0.80;;;-0.10;99.90;;;;;;4963473;28;20071;-80
2022/11/20 07:54:23;;;;;;;0.80;0.80;;;-0.20;99.90;;;;;;4958031;28;20410;-81
2022/11/20 07:56:49;;;;;;;0.80;0.80;;;-0.20;99.90;;;;;;4975604;28;20052;-81
2022/11/20 07:59:15;;;;;;;0.80;0.80;;;-0.10;99.90;;;;;;4966647;28;20048;-81
2022/11/20 08:01:42;;;;;;;0.85;0.85;;;0.00;99.90;;;;;;4962239;28;20659;-80
2022/11/20 08:04:09;;;;;;;0.80;0.80;;;-0.10;99.90;;;;;;4960812;28;20049;-82
2022/11/20 08:06:35;;;;;;;0.82;0.82;;;0.00;99.90;;;;;;4958739;28;20183;-78
2022/11/20 08:09:02;;;;;;;0.80;0.80;;;0.10;99.90;;;;;;4979306;28;20069;-81
2022/11/20 08:14:13;;;;;;;0.77;0.77;;;0.10;99.90;;;;;;4968563;28;20118;-80
2022/11/20 08:16:49;;;;;;;0.80;0.80;;;0.20;99.90;;;;;;4980185;28;20049;-80
2022/11/20 08:19:17;;;;;;;0.77;0.77;;;0.10;99.90;;;;;;4959766;28;20057;-80
2022/11/20 08:21:43;;;;;;;0.80;0.80;;;0.10;99.90;;;;;;4987140;28;20048;-80
2022/11/20 08:24:10;;;;;;;0.80;0.80;;;0.20;99.90;;;;;;4941114;28;20159;-82
2022/11/20 08:26:37;;;;;;;0.80;0.80;;;0.30;99.90;;;;;;4975426;28;20044;-81
2022/11/20 08:29:04;;;;;;;0.80;0.80;;;0.20;99.90;;;;;;4958584;28;20113;-81
2022/11/20 08:31:31;;;;;;;0.90;0.90;;;0.30;99.90;;;;;;4961433;28;20059;-82
2022/11/20 08:33:58;;;;;;;0.80;0.80;;;0.20;99.90;;;;;;4960206;28;20119;-81
2022/11/20 08:36:24;;;;;;;0.82;0.82;;;0.30;99.90;;;;;;4956796;28;20060;-79
2022/11/20 08:38:52;;;;;;;0.80;0.80;;;0.20;99.90;;;;;;4979983;28;20760;-82
2022/11/20 08:41:24;;;;;;;0.80;0.80;;;0.10;99.90;;;;;;4957993;28;20885;-82
2022/11/20 08:43:51;;;;;;;0.90;0.90;;;0.20;99.90;;;;;;4939338;28;20701;-80
2022/11/20 08:46:17;;;;;;;0.85;0.85;;;0.20;99.90;;;;;;4957572;28;20079;-81
2022/11/20 08:48:44;;;;;;;0.80;0.80;;;0.20;99.90;;;;;;4973998;28;21746;-81
2022/11/20 08:51:11;;;;;;;0.80;0.80;;;0.20;99.90;;;;;;4981162;28;20125;-80
2022/11/20 08:53:37;;;;;;;0.80;0.80;;;0.40;99.90;;;;;;4968438;28;20258;-78
2022/11/20 08:56:03;;;;;;;0.82;0.82;;;0.40;99.90;;;;;;4995541;28;20056;-81
2022/11/20 08:58:29;;;;;;;0.90;0.90;;;0.40;99.90;;;;;;4970405;28;20568;-83
2022/11/20 09:00:54;;;;;;;0.88;0.88;;;0.40;99.90;;;;;;4975373;28;20155;-82
2022/11/20 09:03:20;;;;;;;0.80;0.80;;;0.30;99.90;;;;;;4972079;28;20453;-86
2022/11/20 09:05:49;;;;;;;0.80;0.80;;;0.30;99.90;;;;;;4953825;28;20052;-82
2022/11/20 09:08:15;;;;;;;0.80;0.80;;;0.40;99.90;;;;;;4970585;28;20607;-82
2022/11/20 09:10:41;;;;;;;0.73;0.73;;;0.40;99.90;;;;;;4974792;28;21438;-80
2022/11/20 09:13:07;;;;;;;0.80;0.80;;;0.50;99.90;;;;;;4988704;28;20452;-80
2022/11/20 09:15:33;;;;;;;0.80;0.80;;;0.80;99.90;;;;;;4988704;28;20129;-83
2022/11/20 09:18:02;;;;;;;1.20;1.20;;;1.00;99.90;;;;;;4959347;28;20056;-83
2022/11/20 09:20:29;;;;;;;0.80;0.80;;;1.30;99.90;;;;;;4970517;28;20053;-83
2022/11/20 09:22:57;;;;;;;0.75;0.75;;;1.40;99.90;;;;;;4955805;28;20286;-85
2022/11/20 09:25:22;;;;;;;0.80;0.80;;;1.60;99.90;;;;;;4956968;28;20788;-85
2022/11/20 09:27:54;;;;;;;0.80;0.80;;;1.70;99.90;;;;;;4956213;28;20059;-86
2022/11/20 09:30:20;;;;;;;0.73;0.73;;;1.70;99.90;;;;;;4969231;28;20055;-85
2022/11/20 09:32:46;;;;;;;0.73;0.73;;;1.50;99.90;;;;;;4952043;28;20707;-83
2022/11/20 09:35:12;;;;;;;0.80;0.80;;;2.00;99.90;;;;;;4962248;28;20058;-85
2022/11/20 09:37:38;;;;;;;0.70;0.70;;;2.00;99.90;;;;;;4964644;28;20375;-82
2022/11/20 09:40:04;;;;;;;0.70;0.70;;;2.10;99.90;;;;;;4960199;28;20124;-82
2022/11/20 09:42:41;;;;;;;0.70;0.70;;;2.30;99.90;;;;;;4995812;28;20109;-84
2022/11/20 09:45:21;;;;;;;0.73;0.73;;;2.20;99.90;;;;;;4978534;28;20048;-87
2022/11/20 09:48:00;;;;;;;0.70;0.70;;;2.30;99.90;;;;;;4975825;28;20915;-83
2022/11/20 09:50:47;;;;;;;0.70;0.70;;;1.80;99.90;;;;;;4957593;28;20040;-82
2022/11/20 09:53:33;;;;;;;0.70;0.70;;;2.30;99.90;;;;;;4979181;28;20052;-86
2022/11/20 09:56:09;;;;;;;0.70;0.70;;;2.40;99.90;;;;;;4987213;28;20044;-89
2022/11/20 09:58:54;;;;;;;0.70;0.70;;;2.60;99.90;;;;;;4988132;28;20517;-87
2022/11/20 10:01:33;;;;;;;0.70;0.70;;;2.50;99.90;;;;;;4971622;28;20510;-86
2022/11/20 10:04:01;;;;;;;0.70;0.70;;;2.60;99.90;;;;;;4964372;28;20100;-85
2022/11/20 10:06:41;;;;;;;0.70;0.70;;;2.50;99.90;;;;;;4965194;28;20167;-86
2022/11/20 10:09:41;;;;;;;0.70;0.70;;;2.60;99.90;;;;;;4977344;28;20405;-85
2022/11/20 10:12:18;;;;;;;0.70;0.70;;;2.70;99.90;;;;;;4945114;28;20114;-87
2022/11/20 10:15:00;;;;;;;0.70;0.70;;;2.70;99.90;;;;;;4968992;28;20044;-87
2022/11/20 10:17:46;;;;;;;0.70;0.70;;;2.80;99.90;;;;;;4947051;28;20049;-87
2022/11/20 10:20:25;;;;;;;0.70;0.70;;;2.80;99.90;;;;;;4962038;28;20403;-88
2022/11/20 10:23:29;;;;;;;0.70;0.70;;;2.70;99.90;;;;;;4962757;28;20652;-87
2022/11/20 10:26:06;;;;;;;0.70;0.70;;;3.00;99.90;;;;;;4960483;28;20131;-90
2022/11/20 10:28:48;;;;;;;0.70;0.70;;;3.00;99.90;;;;;;4950563;28;20250;-85
2022/11/20 10:31:29;;;;;;;0.70;0.70;;;3.10;99.90;;;;;;4955915;28;20041;-89
2022/11/20 10:34:00;;;;;;;0.75;0.75;;;3.10;99.90;;;;;;4962950;28;20537;-89
2022/11/20 10:37:23;;;;;;;0.80;0.80;;;3.40;99.90;;;;;;4947062;28;20060;-93
2022/11/20 10:40:07;;;;;;;0.75;0.75;;;3.30;99.90;;;;;;4864409;28;20051;-87
2022/11/20 10:43:00;;;;;;;0.70;0.70;;;3.20;99.90;;;;;;4854147;28;20624;-87
2022/11/20 10:45:26;;;;;;;0.70;0.70;;;3.20;99.90;;;;;;4879569;28;20672;-90
2022/11/20 10:48:22;;;;;;;0.70;0.70;;;3.10;99.90;;;;;;4896229;28;20402;-87
2022/11/20 10:51:26;;;;;;;0.70;0.70;;;3.00;99.90;;;;;;4958459;28;20049;-93
2022/11/20 10:54:10;;;;;;;0.73;0.73;;;3.00;99.90;;;;;;4958272;28;20051;-86
2022/11/20 10:56:35;;;;;;;;;;;3.20;99.90;;;;;;4958777;28;20056;-88
2022/11/20 10:59:46;;;;;;;0.80;0.80;;;3.30;99.90;;;;;;4969189;28;20228;-88
2022/11/20 11:02:39;;;;;;;0.80;0.80;;;3.20;99.90;;;;;;4958604;28;20418;-87
2022/11/20 11:05:20;;;;;;;0.70;0.70;;;3.10;99.90;;;;;;4963124;28;20522;-87
2022/11/20 11:07:57;;;;;;;0.70;0.70;;;2.90;99.90;;;;;;4942033;28;20421;-89
2022/11/20 11:10:36;;;;;;;0.70;0.70;;;3.00;99.90;;;;;;4962591;28;20227;-84
2022/11/20 11:13:02;;;;;;;0.70;0.70;;;3.10;99.90;;;;;;4971731;28;20083;-85
2022/11/20 11:15:39;;;;;;;0.77;0.77;;;3.30;99.90;;;;;;4989958;28;20608;-83
2022/11/20 11:18:08;;;;;;;0.70;0.70;;;3.40;99.90;;;;;;4953966;28;20369;-89
2022/11/20 11:20:34;;;;;;;0.70;0.70;;;3.70;99.90;;;;;;4953080;28;20495;-86
2022/11/20 11:23:04;;;;;;;0.80;0.80;;;3.70;99.90;;;;;;4951631;28;20410;-84
2022/11/20 11:25:38;;;;;;;0.80;0.80;;;3.80;99.90;;;;;;4976343;28;20048;-87
2022/11/20 11:28:25;;;;;;;0.70;0.70;;;3.90;99.90;;;;;;4959683;28;20086;-87
2022/11/20 11:30:52;;;;;;;0.70;0.70;;;4.00;99.90;;;;;;4971806;28;20449;-85
2022/11/20 11:33:25;;;;;;;0.73;0.73;;;3.80;99.90;;;;;;4945599;28;20083;-85
2022/11/20 11:36:02;;;;;;;;;;;3.90;99.90;;;;;;4969999;28;20804;-86
2022/11/20 11:38:35;;;;;;;0.70;0.70;;;3.60;99.90;;;;;;4966127;28;19960;-84
2022/11/20 11:41:07;;;;;;;0.70;0.70;;;3.90;99.90;;;;;;4960334;28;20421;-86
2022/11/20 11:46:35;;;;;;;0.70;0.70;;;3.80;99.90;;;;;;5007199;28;20080;-85
2022/11/20 11:49:09;;;;;;;0.70;0.70;;;3.80;99.90;;;;;;4958772;28;20053;-86
2022/11/20 11:51:58;;;;;;;0.70;0.70;;;3.70;99.90;;;;;;4958088;28;20094;-84
2022/11/20 11:54:39;;;;;;;0.73;0.73;;;3.50;99.90;;;;;;4962623;28;20334;-86
2022/11/20 11:57:31;;;;;;;0.70;0.70;;;3.20;99.90;;;;;;4980098;28;20041;-86
2022/11/20 12:00:16;;;;;;;0.80;0.80;;;3.80;99.90;;;;;;4963537;28;20058;-90
2022/11/20 12:02:45;;;;;;;0.80;0.80;;;4.00;99.90;;;;;;4962642;28;20077;-88
2022/11/20 12:05:29;;;;;;;0.80;0.80;;;3.90;99.90;;;;;;4959273;28;20079;-85
2022/11/20 12:08:17;;;;;;;0.70;0.70;;;3.80;99.90;;;;;;4977377;28;20040;-87
2022/11/20 12:10:55;;;;;;;0.70;0.70;;;4.00;99.90;;;;;;4994520;28;20051;-85
2022/11/20 12:13:41;;;;;;;0.70;0.70;;;4.20;99.90;;;;;;4980052;28;20480;-87
2022/11/20 12:16:17;;;;;;;0.70;0.70;;;4.50;99.90;;;;;;4983439;28;20048;-87
2022/11/20 12:18:44;;;;;;;0.70;0.70;;;4.20;99.90;;;;;;4984826;28;20052;-88
2022/11/20 12:21:39;;;;;;;0.70;0.70;;;4.20;99.90;;;;;;4969393;28;20420;-88
2022/11/20 12:24:42;;;;;;;0.70;0.70;;;4.50;99.90;;;;;;4895429;28;20378;-89
2022/11/20 12:27:36;;;;;;;0.70;0.70;;;4.40;99.90;;;;;;4981263;28;20052;-90
2022/11/20 12:30:14;;;;;;;0.73;0.73;;;4.30;99.90;;;;;;4970739;28;20515;-87
2022/11/20 12:32:39;;;;;;;0.70;0.70;;;3.90;99.90;;;;;;4984175;28;20343;-86
2022/11/20 12:35:20;;;;;;;0.70;0.70;;;3.60;99.90;;;;;;4978199;28;20902;-87
2022/11/20 12:38:12;;;;;;;0.70;0.70;;;3.80;99.90;;;;;;4955541;28;20094;-87
2022/11/20 12:41:05;;;;;;;0.70;0.70;;;3.30;99.90;;;;;;4982110;28;20545;-89
2022/11/20 12:46:56;;;;;;;0.70;0.70;;;3.30;99.90;;;;;;4958950;28;20052;-88
2022/11/20 12:49:49;;;;;;;0.70;0.70;;;3.20;99.90;;;;;;4983301;28;20052;-88
2022/11/20 12:53:03;;;;;;;0.80;0.80;;;3.10;99.90;;;;;;4988118;28;20044;-88
2022/11/20 12:55:36;;;;;;;0.70;0.70;;;3.00;99.90;;;;;;4951140;28;20125;-88
2022/11/20 12:58:22;;;;;;;0.70;0.70;;;3.30;99.90;;;;;;4953598;28;20897;-83
2022/11/20 13:00:58;;;;;;;0.70;0.70;;;3.10;99.90;;;;;;4980070;28;20049;-86
2022/11/20 13:03:40;;;;;;;0.70;0.70;;;3.20;99.90;;;;;;4990067;28;20048;-86
2022/11/20 13:06:15;;;;;;;0.65;0.65;;;3.40;99.90;;;;;;5014465;28;20669;-87
2022/11/20 13:08:47;;;;;;;0.70;0.70;;;3.40;99.90;;;;;;4990818;28;20048;-91
2022/11/20 13:11:43;;;;;;;0.70;0.70;;;3.00;99.90;;;;;;4982342;28;20048;-85
2022/11/20 13:14:33;;;;;;;0.70;0.70;;;2.90;99.90;;;;;;4982559;28;20048;-86
2022/11/20 13:17:04;;;;;;;0.70;0.70;;;2.90;99.90;;;;;;4997959;28;20557;-88
2022/11/20 13:19:30;;;;;;;0.70;0.70;;;2.90;99.90;;;;;;4991084;28;20049;-87
2022/11/20 13:21:56;;;;;;;0.70;0.70;;;3.00;99.90;;;;;;4981370;28;20048;-86
2022/11/20 13:24:29;;;;;;;0.70;0.70;;;3.00;99.90;;;;;;4940898;28;20045;-87